sensor_id;sensor_type;location;lat;lon;timestamp;P1;durP1;ratioP1;P2;durP2;ratioP2
16504;SDS011;8365;51.030;4.696;2022-09-03T00:00:25;5.82;;;3.20;;
16504;SDS011;8365;51.030;4.696;2022-09-03T00:03:15;4.78;;;3.22;;
16504;SDS011;8365;51.030;4.696;2022-09-03T00:06:00;7.20;;;3.15;;
16504;SDS011;8365;51.030;4.696;2022-09-03T00:08:42;3.60;;;3.10;;
16504;SDS011;8365;51.030;4.696;2022-09-03T00:11:28;5.68;;;3.45;;
16504;SDS011;8365;51.030;4.696;2022-09-03T00:14:06;4.78;;;2.90;;
16504;SDS011;8365;51.030;4.696;2022-09-03T00:16:52;4.55;;;3.20;;
16504;SDS011;8365;51.030;4.696;2022-09-03T00:19:33;9.18;;;3.40;;
16504;SDS011;8365;51.030;4.696;2022-09-03T00:22:12;4.30;;;3.45;;
16504;SDS011;8365;51.030;4.696;2022-09-03T00:24:46;3.55;;;3.00;;
16504;SDS011;8365;51.030;4.696;2022-09-03T00:27:20;3.40;;;3.10;;
16504;SDS011;8365;51.030;4.696;2022-09-03T00:30:00;3.35;;;2.92;;
16504;SDS011;8365;51.030;4.696;2022-09-03T00:37:56;4.35;;;3.25;;
16504;SDS011;8365;51.030;4.696;2022-09-03T00:40:37;4.00;;;3.25;;
16504;SDS011;8365;51.030;4.696;2022-09-03T00:43:32;6.00;;;2.80;;
16504;SDS011;8365;51.030;4.696;2022-09-03T00:48:55;3.88;;;3.10;;
16504;SDS011;8365;51.030;4.696;2022-09-03T00:51:38;3.40;;;3.10;;
16504;SDS011;8365;51.030;4.696;2022-09-03T00:54:42;7.32;;;3.38;;
16504;SDS011;8365;51.030;4.696;2022-09-03T01:00:09;4.63;;;3.03;;
16504;SDS011;8365;51.030;4.696;2022-09-03T01:02:48;3.45;;;2.88;;
16504;SDS011;8365;51.030;4.696;2022-09-03T01:05:42;4.23;;;3.17;;
16504;SDS011;8365;51.030;4.696;2022-09-03T01:26:09;5.72;;;3.28;;
16504;SDS011;8365;51.030;4.696;2022-09-03T01:29:24;4.43;;;2.87;;
16504;SDS011;8365;51.030;4.696;2022-09-03T01:32:02;8.07;;;3.35;;
16504;SDS011;8365;51.030;4.696;2022-09-03T01:46:16;3.67;;;3.38;;
16504;SDS011;8365;51.030;4.696;2022-09-03T01:51:29;3.73;;;3.20;;
16504;SDS011;8365;51.030;4.696;2022-09-03T02:00:03;5.07;;;3.20;;
16504;SDS011;8365;51.030;4.696;2022-09-03T02:02:33;3.28;;;3.00;;
16504;SDS011;8365;51.030;4.696;2022-09-03T02:05:15;4.40;;;3.25;;
16504;SDS011;8365;51.030;4.696;2022-09-03T02:08:06;4.22;;;3.03;;
16504;SDS011;8365;51.030;4.696;2022-09-03T02:10:52;3.37;;;3.10;;
16504;SDS011;8365;51.030;4.696;2022-09-03T02:13:38;4.33;;;3.33;;
16504;SDS011;8365;51.030;4.696;2022-09-03T02:16:12;4.23;;;2.90;;
16504;SDS011;8365;51.030;4.696;2022-09-03T02:18:46;3.43;;;3.13;;
16504;SDS011;8365;51.030;4.696;2022-09-03T02:21:24;5.93;;;3.73;;
16504;SDS011;8365;51.030;4.696;2022-09-03T02:24:02;5.13;;;3.35;;
16504;SDS011;8365;51.030;4.696;2022-09-03T02:26:34;5.10;;;3.40;;
16504;SDS011;8365;51.030;4.696;2022-09-03T02:29:04;4.27;;;3.17;;
16504;SDS011;8365;51.030;4.696;2022-09-03T02:31:35;4.67;;;3.00;;
16504;SDS011;8365;51.030;4.696;2022-09-03T02:34:06;4.55;;;3.30;;
16504;SDS011;8365;51.030;4.696;2022-09-03T02:36:37;4.22;;;3.75;;
16504;SDS011;8365;51.030;4.696;2022-09-03T02:39:11;4.33;;;3.17;;
16504;SDS011;8365;51.030;4.696;2022-09-03T02:41:49;3.72;;;3.35;;
16504;SDS011;8365;51.030;4.696;2022-09-03T02:44:25;3.72;;;3.42;;
16504;SDS011;8365;51.030;4.696;2022-09-03T02:47:01;6.00;;;3.58;;
16504;SDS011;8365;51.030;4.696;2022-09-03T02:49:34;3.42;;;3.10;;
16504;SDS011;8365;51.030;4.696;2022-09-03T02:52:08;3.70;;;3.40;;
16504;SDS011;8365;51.030;4.696;2022-09-03T02:54:40;3.70;;;2.97;;
16504;SDS011;8365;51.030;4.696;2022-09-03T02:57:12;2.90;;;2.70;;
16504;SDS011;8365;51.030;4.696;2022-09-03T02:59:44;3.55;;;3.30;;
16504;SDS011;8365;51.030;4.696;2022-09-03T03:02:15;3.45;;;3.15;;
16504;SDS011;8365;51.030;4.696;2022-09-03T03:04:45;3.28;;;2.90;;
16504;SDS011;8365;51.030;4.696;2022-09-03T03:07:15;4.55;;;3.10;;
16504;SDS011;8365;51.030;4.696;2022-09-03T03:09:46;8.75;;;3.00;;
16504;SDS011;8365;51.030;4.696;2022-09-03T03:12:16;4.30;;;3.08;;
16504;SDS011;8365;51.030;4.696;2022-09-03T03:14:48;4.43;;;3.47;;
16504;SDS011;8365;51.030;4.696;2022-09-03T03:17:18;3.88;;;3.20;;
16504;SDS011;8365;51.030;4.696;2022-09-03T03:19:49;4.25;;;3.60;;
16504;SDS011;8365;51.030;4.696;2022-09-03T03:22:19;4.00;;;3.40;;
16504;SDS011;8365;51.030;4.696;2022-09-03T03:24:50;4.70;;;3.53;;
16504;SDS011;8365;51.030;4.696;2022-09-03T03:27:21;3.33;;;3.08;;
16504;SDS011;8365;51.030;4.696;2022-09-03T03:29:52;4.15;;;3.40;;
16504;SDS011;8365;51.030;4.696;2022-09-03T03:32:23;4.80;;;3.13;;
16504;SDS011;8365;51.030;4.696;2022-09-03T03:34:54;4.13;;;3.35;;
16504;SDS011;8365;51.030;4.696;2022-09-03T03:37:24;3.63;;;3.33;;
16504;SDS011;8365;51.030;4.696;2022-09-03T03:39:55;3.70;;;3.40;;
16504;SDS011;8365;51.030;4.696;2022-09-03T03:42:25;5.80;;;3.40;;
16504;SDS011;8365;51.030;4.696;2022-09-03T03:44:55;7.05;;;3.58;;
16504;SDS011;8365;51.030;4.696;2022-09-03T03:47:26;3.40;;;3.20;;
16504;SDS011;8365;51.030;4.696;2022-09-03T03:49:58;3.92;;;3.63;;
16504;SDS011;8365;51.030;4.696;2022-09-03T03:52:28;3.47;;;3.17;;
16504;SDS011;8365;51.030;4.696;2022-09-03T03:54:59;5.10;;;3.30;;
16504;SDS011;8365;51.030;4.696;2022-09-03T03:57:30;6.25;;;3.30;;
16504;SDS011;8365;51.030;4.696;2022-09-03T04:00:03;5.28;;;3.40;;
16504;SDS011;8365;51.030;4.696;2022-09-03T04:02:34;3.50;;;3.17;;
16504;SDS011;8365;51.030;4.696;2022-09-03T04:05:04;4.93;;;3.53;;
16504;SDS011;8365;51.030;4.696;2022-09-03T04:07:37;3.85;;;3.30;;
16504;SDS011;8365;51.030;4.696;2022-09-03T04:10:08;3.80;;;3.50;;
16504;SDS011;8365;51.030;4.696;2022-09-03T04:12:39;4.03;;;3.63;;
16504;SDS011;8365;51.030;4.696;2022-09-03T04:15:09;4.70;;;3.75;;
16504;SDS011;8365;51.030;4.696;2022-09-03T04:17:40;4.65;;;3.40;;
16504;SDS011;8365;51.030;4.696;2022-09-03T04:20:10;3.80;;;3.50;;
16504;SDS011;8365;51.030;4.696;2022-09-03T04:22:41;7.35;;;3.80;;
16504;SDS011;8365;51.030;4.696;2022-09-03T04:25:11;6.25;;;4.10;;
16504;SDS011;8365;51.030;4.696;2022-09-03T04:27:42;5.25;;;3.78;;
16504;SDS011;8365;51.030;4.696;2022-09-03T04:30:13;3.90;;;3.38;;
16504;SDS011;8365;51.030;4.696;2022-09-03T04:32:43;4.35;;;3.78;;
16504;SDS011;8365;51.030;4.696;2022-09-03T04:35:24;3.80;;;3.40;;
16504;SDS011;8365;51.030;4.696;2022-09-03T04:37:56;3.90;;;3.60;;
16504;SDS011;8365;51.030;4.696;2022-09-03T04:40:27;3.90;;;3.50;;
16504;SDS011;8365;51.030;4.696;2022-09-03T04:42:58;6.43;;;3.42;;
16504;SDS011;8365;51.030;4.696;2022-09-03T04:45:29;3.88;;;3.35;;
16504;SDS011;8365;51.030;4.696;2022-09-03T04:48:03;5.65;;;3.60;;
16504;SDS011;8365;51.030;4.696;2022-09-03T04:50:34;6.07;;;3.75;;
16504;SDS011;8365;51.030;4.696;2022-09-03T04:53:04;5.38;;;3.42;;
16504;SDS011;8365;51.030;4.696;2022-09-03T04:55:36;5.00;;;3.43;;
16504;SDS011;8365;51.030;4.696;2022-09-03T04:58:07;4.60;;;3.60;;
16504;SDS011;8365;51.030;4.696;2022-09-03T05:00:37;4.83;;;3.23;;
16504;SDS011;8365;51.030;4.696;2022-09-03T05:03:08;6.20;;;3.47;;
16504;SDS011;8365;51.030;4.696;2022-09-03T05:05:41;10.68;;;4.28;;
16504;SDS011;8365;51.030;4.696;2022-09-03T05:08:12;6.78;;;3.50;;
16504;SDS011;8365;51.030;4.696;2022-09-03T05:10:42;5.60;;;3.58;;
16504;SDS011;8365;51.030;4.696;2022-09-03T05:13:13;6.67;;;3.43;;
16504;SDS011;8365;51.030;4.696;2022-09-03T05:15:43;5.30;;;3.57;;
16504;SDS011;8365;51.030;4.696;2022-09-03T05:18:14;10.23;;;3.50;;
16504;SDS011;8365;51.030;4.696;2022-09-03T05:20:47;6.43;;;3.60;;
16504;SDS011;8365;51.030;4.696;2022-09-03T05:23:17;8.77;;;3.43;;
16504;SDS011;8365;51.030;4.696;2022-09-03T05:25:55;4.97;;;3.60;;
16504;SDS011;8365;51.030;4.696;2022-09-03T05:28:38;7.32;;;3.83;;
16504;SDS011;8365;51.030;4.696;2022-09-03T05:31:11;6.53;;;3.65;;
16504;SDS011;8365;51.030;4.696;2022-09-03T05:33:44;6.30;;;3.65;;
16504;SDS011;8365;51.030;4.696;2022-09-03T05:36:19;6.03;;;3.63;;
16504;SDS011;8365;51.030;4.696;2022-09-03T05:38:54;4.60;;;3.25;;
16504;SDS011;8365;51.030;4.696;2022-09-03T05:41:28;3.67;;;3.38;;
16504;SDS011;8365;51.030;4.696;2022-09-03T05:43:58;4.57;;;3.53;;
16504;SDS011;8365;51.030;4.696;2022-09-03T05:46:29;6.72;;;2.85;;
16504;SDS011;8365;51.030;4.696;2022-09-03T05:49:02;3.72;;;3.33;;
16504;SDS011;8365;51.030;4.696;2022-09-03T05:51:38;8.13;;;3.55;;
16504;SDS011;8365;51.030;4.696;2022-09-03T05:54:09;3.47;;;3.17;;
16504;SDS011;8365;51.030;4.696;2022-09-03T05:56:42;4.88;;;3.13;;
16504;SDS011;8365;51.030;4.696;2022-09-03T05:59:12;5.03;;;3.25;;
16504;SDS011;8365;51.030;4.696;2022-09-03T06:01:43;4.15;;;3.60;;
16504;SDS011;8365;51.030;4.696;2022-09-03T06:04:15;5.47;;;3.20;;
16504;SDS011;8365;51.030;4.696;2022-09-03T06:06:49;9.02;;;3.28;;
16504;SDS011;8365;51.030;4.696;2022-09-03T06:09:20;4.03;;;3.20;;
16504;SDS011;8365;51.030;4.696;2022-09-03T06:11:51;3.27;;;3.03;;
16504;SDS011;8365;51.030;4.696;2022-09-03T06:14:22;3.47;;;3.17;;
16504;SDS011;8365;51.030;4.696;2022-09-03T06:16:54;5.93;;;3.25;;
16504;SDS011;8365;51.030;4.696;2022-09-03T06:19:25;4.22;;;3.03;;
16504;SDS011;8365;51.030;4.696;2022-09-03T06:21:58;9.70;;;3.50;;
16504;SDS011;8365;51.030;4.696;2022-09-03T06:24:29;3.83;;;3.00;;
16504;SDS011;8365;51.030;4.696;2022-09-03T06:26:59;3.20;;;2.85;;
16504;SDS011;8365;51.030;4.696;2022-09-03T06:29:30;4.32;;;2.78;;
16504;SDS011;8365;51.030;4.696;2022-09-03T06:32:00;4.78;;;3.03;;
16504;SDS011;8365;51.030;4.696;2022-09-03T06:34:33;5.93;;;2.85;;
16504;SDS011;8365;51.030;4.696;2022-09-03T06:37:04;4.28;;;2.92;;
16504;SDS011;8365;51.030;4.696;2022-09-03T06:39:36;5.60;;;3.38;;
16504;SDS011;8365;51.030;4.696;2022-09-03T06:42:07;4.47;;;3.08;;
16504;SDS011;8365;51.030;4.696;2022-09-03T06:44:41;3.38;;;2.90;;
16504;SDS011;8365;51.030;4.696;2022-09-03T06:47:14;5.15;;;3.30;;
16504;SDS011;8365;51.030;4.696;2022-09-03T06:49:44;4.60;;;3.47;;
16504;SDS011;8365;51.030;4.696;2022-09-03T06:52:17;6.90;;;3.05;;
16504;SDS011;8365;51.030;4.696;2022-09-03T06:54:47;4.45;;;3.33;;
16504;SDS011;8365;51.030;4.696;2022-09-03T06:57:18;4.90;;;3.47;;
16504;SDS011;8365;51.030;4.696;2022-09-03T06:59:48;4.38;;;3.30;;
16504;SDS011;8365;51.030;4.696;2022-09-03T07:02:19;3.15;;;2.85;;
16504;SDS011;8365;51.030;4.696;2022-09-03T07:04:51;3.70;;;3.15;;
16504;SDS011;8365;51.030;4.696;2022-09-03T07:07:22;5.40;;;3.05;;
16504;SDS011;8365;51.030;4.696;2022-09-03T07:09:52;6.18;;;3.35;;
16504;SDS011;8365;51.030;4.696;2022-09-03T07:12:25;4.10;;;3.35;;
16504;SDS011;8365;51.030;4.696;2022-09-03T07:14:56;4.30;;;3.10;;
16504;SDS011;8365;51.030;4.696;2022-09-03T07:17:26;3.53;;;3.05;;
16504;SDS011;8365;51.030;4.696;2022-09-03T07:19:57;3.85;;;3.00;;
16504;SDS011;8365;51.030;4.696;2022-09-03T07:22:27;4.10;;;2.80;;
16504;SDS011;8365;51.030;4.696;2022-09-03T07:24:58;3.85;;;2.92;;
16504;SDS011;8365;51.030;4.696;2022-09-03T07:27:28;3.22;;;2.60;;
16504;SDS011;8365;51.030;4.696;2022-09-03T07:29:59;5.63;;;3.30;;
16504;SDS011;8365;51.030;4.696;2022-09-03T07:32:29;3.20;;;2.90;;
16504;SDS011;8365;51.030;4.696;2022-09-03T07:35:00;4.63;;;2.58;;
16504;SDS011;8365;51.030;4.696;2022-09-03T07:37:30;2.67;;;2.47;;
16504;SDS011;8365;51.030;4.696;2022-09-03T07:40:01;4.85;;;2.65;;
16504;SDS011;8365;51.030;4.696;2022-09-03T07:42:31;6.72;;;2.70;;
16504;SDS011;8365;51.030;4.696;2022-09-03T07:45:05;2.95;;;2.60;;
16504;SDS011;8365;51.030;4.696;2022-09-03T07:47:46;5.65;;;3.03;;
16504;SDS011;8365;51.030;4.696;2022-09-03T07:50:18;5.82;;;2.42;;
16504;SDS011;8365;51.030;4.696;2022-09-03T07:52:54;4.03;;;2.63;;
16504;SDS011;8365;51.030;4.696;2022-09-03T07:55:25;3.60;;;2.40;;
16504;SDS011;8365;51.030;4.696;2022-09-03T07:57:57;2.70;;;2.50;;
16504;SDS011;8365;51.030;4.696;2022-09-03T08:00:28;2.55;;;2.35;;
16504;SDS011;8365;51.030;4.696;2022-09-03T08:02:58;2.40;;;2.20;;
16504;SDS011;8365;51.030;4.696;2022-09-03T08:05:35;3.35;;;2.40;;
16504;SDS011;8365;51.030;4.696;2022-09-03T08:08:06;2.50;;;1.90;;
16504;SDS011;8365;51.030;4.696;2022-09-03T08:10:37;4.85;;;2.47;;
16504;SDS011;8365;51.030;4.696;2022-09-03T08:13:08;2.63;;;2.20;;
16504;SDS011;8365;51.030;4.696;2022-09-03T08:15:41;4.75;;;2.40;;
16504;SDS011;8365;51.030;4.696;2022-09-03T08:18:11;4.30;;;2.38;;
16504;SDS011;8365;51.030;4.696;2022-09-03T08:20:42;2.75;;;2.42;;
16504;SDS011;8365;51.030;4.696;2022-09-03T08:23:13;2.60;;;2.40;;
16504;SDS011;8365;51.030;4.696;2022-09-03T08:25:44;2.85;;;2.60;;
16504;SDS011;8365;51.030;4.696;2022-09-03T08:28:15;2.75;;;2.40;;
16504;SDS011;8365;51.030;4.696;2022-09-03T08:30:45;6.13;;;2.72;;
16504;SDS011;8365;51.030;4.696;2022-09-03T08:33:18;3.47;;;2.50;;
16504;SDS011;8365;51.030;4.696;2022-09-03T08:36:07;3.88;;;2.42;;
16504;SDS011;8365;51.030;4.696;2022-09-03T08:38:40;2.88;;;2.30;;
16504;SDS011;8365;51.030;4.696;2022-09-03T08:44:22;4.05;;;2.55;;
16504;SDS011;8365;51.030;4.696;2022-09-03T08:49:27;3.25;;;2.60;;
16504;SDS011;8365;51.030;4.696;2022-09-03T08:52:02;3.88;;;2.55;;
16504;SDS011;8365;51.030;4.696;2022-09-03T08:54:37;5.97;;;2.70;;
16504;SDS011;8365;51.030;4.696;2022-09-03T08:57:08;5.65;;;3.08;;
16504;SDS011;8365;51.030;4.696;2022-09-03T08:59:38;3.58;;;2.40;;
16504;SDS011;8365;51.030;4.696;2022-09-03T09:02:22;4.75;;;2.90;;
16504;SDS011;8365;51.030;4.696;2022-09-03T09:05:06;4.25;;;2.92;;
16504;SDS011;8365;51.030;4.696;2022-09-03T09:07:44;4.70;;;2.88;;
16504;SDS011;8365;51.030;4.696;2022-09-03T09:10:39;4.27;;;3.07;;
16504;SDS011;8365;51.030;4.696;2022-09-03T09:13:26;3.55;;;2.50;;
16504;SDS011;8365;51.030;4.696;2022-09-03T09:16:15;5.20;;;3.03;;
16504;SDS011;8365;51.030;4.696;2022-09-03T09:22:10;5.70;;;2.80;;
16504;SDS011;8365;51.030;4.696;2022-09-03T09:24:51;3.20;;;2.95;;
16504;SDS011;8365;51.030;4.696;2022-09-03T09:27:24;3.45;;;2.72;;
16504;SDS011;8365;51.030;4.696;2022-09-03T09:29:54;3.35;;;2.75;;
16504;SDS011;8365;51.030;4.696;2022-09-03T09:32:30;7.40;;;3.60;;
16504;SDS011;8365;51.030;4.696;2022-09-03T09:35:07;5.88;;;2.50;;
16504;SDS011;8365;51.030;4.696;2022-09-03T09:37:49;3.13;;;2.80;;
16504;SDS011;8365;51.030;4.696;2022-09-03T09:40:25;3.80;;;2.78;;
16504;SDS011;8365;51.030;4.696;2022-09-03T09:45:41;4.22;;;2.88;;
16504;SDS011;8365;51.030;4.696;2022-09-03T09:48:30;7.88;;;3.33;;
16504;SDS011;8365;51.030;4.696;2022-09-03T09:51:09;3.53;;;3.22;;
16504;SDS011;8365;51.030;4.696;2022-09-03T09:53:48;2.95;;;2.70;;
16504;SDS011;8365;51.030;4.696;2022-09-03T09:56:57;3.75;;;2.80;;
16504;SDS011;8365;51.030;4.696;2022-09-03T09:59:37;4.78;;;3.08;;
16504;SDS011;8365;51.030;4.696;2022-09-03T10:02:10;3.00;;;2.80;;
16504;SDS011;8365;51.030;4.696;2022-09-03T10:04:49;3.58;;;3.03;;
16504;SDS011;8365;51.030;4.696;2022-09-03T10:07:29;3.33;;;2.97;;
16504;SDS011;8365;51.030;4.696;2022-09-03T10:10:06;4.40;;;3.28;;
16504;SDS011;8365;51.030;4.696;2022-09-03T10:12:49;3.65;;;3.35;;
16504;SDS011;8365;51.030;4.696;2022-09-03T10:15:39;3.72;;;3.10;;
16504;SDS011;8365;51.030;4.696;2022-09-03T10:24:28;4.50;;;2.90;;
16504;SDS011;8365;51.030;4.696;2022-09-03T10:27:00;5.03;;;3.20;;
16504;SDS011;8365;51.030;4.696;2022-09-03T10:29:30;3.60;;;3.30;;
16504;SDS011;8365;51.030;4.696;2022-09-03T10:32:17;4.88;;;3.10;;
16504;SDS011;8365;51.030;4.696;2022-09-03T10:35:02;3.63;;;3.28;;
16504;SDS011;8365;51.030;4.696;2022-09-03T10:37:43;3.00;;;2.80;;
16504;SDS011;8365;51.030;4.696;2022-09-03T10:46:15;3.78;;;3.03;;
16504;SDS011;8365;51.030;4.696;2022-09-03T10:51:49;4.60;;;2.90;;
16504;SDS011;8365;51.030;4.696;2022-09-03T10:54:51;5.32;;;3.03;;
16504;SDS011;8365;51.030;4.696;2022-09-03T10:57:47;3.58;;;2.97;;
16504;SDS011;8365;51.030;4.696;2022-09-03T11:00:28;3.95;;;2.85;;
16504;SDS011;8365;51.030;4.696;2022-09-03T11:05:38;3.45;;;3.20;;
16504;SDS011;8365;51.030;4.696;2022-09-03T11:08:35;3.60;;;3.30;;
16504;SDS011;8365;51.030;4.696;2022-09-03T11:11:23;5.38;;;3.53;;
16504;SDS011;8365;51.030;4.696;2022-09-03T11:14:07;3.72;;;3.42;;
16504;SDS011;8365;51.030;4.696;2022-09-03T11:16:46;3.53;;;3.03;;
16504;SDS011;8365;51.030;4.696;2022-09-03T11:19:24;4.32;;;3.67;;
16504;SDS011;8365;51.030;4.696;2022-09-03T11:22:03;3.60;;;3.30;;
16504;SDS011;8365;51.030;4.696;2022-09-03T11:24:36;3.60;;;3.30;;
16504;SDS011;8365;51.030;4.696;2022-09-03T11:30:12;3.47;;;3.20;;
16504;SDS011;8365;51.030;4.696;2022-09-03T11:32:53;3.33;;;3.08;;
16504;SDS011;8365;51.030;4.696;2022-09-03T11:38:20;3.50;;;3.20;;
16504;SDS011;8365;51.030;4.696;2022-09-03T11:41:22;3.45;;;3.15;;
16504;SDS011;8365;51.030;4.696;2022-09-03T11:43:56;3.53;;;3.30;;
16504;SDS011;8365;51.030;4.696;2022-09-03T11:46:29;4.93;;;3.30;;
16504;SDS011;8365;51.030;4.696;2022-09-03T11:49:10;3.95;;;3.00;;
16504;SDS011;8365;51.030;4.696;2022-09-03T11:51:42;3.53;;;3.30;;
16504;SDS011;8365;51.030;4.696;2022-09-03T11:56:49;4.57;;;3.65;;
16504;SDS011;8365;51.030;4.696;2022-09-03T11:59:32;3.85;;;3.55;;
16504;SDS011;8365;51.030;4.696;2022-09-03T12:02:05;3.72;;;3.42;;
16504;SDS011;8365;51.030;4.696;2022-09-03T12:19:48;5.85;;;4.00;;
16504;SDS011;8365;51.030;4.696;2022-09-03T12:22:02;5.18;;;4.30;;
16504;SDS011;8365;51.030;4.696;2022-09-03T12:24:33;4.07;;;3.78;;
16504;SDS011;8365;51.030;4.696;2022-09-03T12:27:08;4.18;;;3.88;;
16504;SDS011;8365;51.030;4.696;2022-09-03T12:29:54;3.92;;;3.63;;
16504;SDS011;8365;51.030;4.696;2022-09-03T12:32:30;3.60;;;3.30;;
16504;SDS011;8365;51.030;4.696;2022-09-03T12:35:19;4.82;;;4.00;;
16504;SDS011;8365;51.030;4.696;2022-09-03T12:37:53;3.70;;;3.40;;
16504;SDS011;8365;51.030;4.696;2022-09-03T12:40:25;3.75;;;3.40;;
16504;SDS011;8365;51.030;4.696;2022-09-03T12:43:11;3.63;;;3.38;;
16504;SDS011;8365;51.030;4.696;2022-09-03T12:45:47;4.03;;;3.10;;
16504;SDS011;8365;51.030;4.696;2022-09-03T12:48:23;3.22;;;3.00;;
16504;SDS011;8365;51.030;4.696;2022-09-03T12:51:01;6.05;;;3.58;;
16504;SDS011;8365;51.030;4.696;2022-09-03T12:53:32;3.70;;;3.40;;
16504;SDS011;8365;51.030;4.696;2022-09-03T12:56:03;4.22;;;3.40;;
16504;SDS011;8365;51.030;4.696;2022-09-03T12:58:36;4.68;;;3.58;;
16504;SDS011;8365;51.030;4.696;2022-09-03T13:01:20;4.90;;;3.30;;
16504;SDS011;8365;51.030;4.696;2022-09-03T13:03:56;3.20;;;3.00;;
16504;SDS011;8365;51.030;4.696;2022-09-03T13:09:19;3.28;;;2.95;;
16504;SDS011;8365;51.030;4.696;2022-09-03T13:11:53;3.08;;;2.88;;
16504;SDS011;8365;51.030;4.696;2022-09-03T13:14:27;2.63;;;2.45;;
16504;SDS011;8365;51.030;4.696;2022-09-03T13:20:09;4.00;;;3.60;;
16504;SDS011;8365;51.030;4.696;2022-09-03T13:23:00;3.80;;;3.45;;
16504;SDS011;8365;51.030;4.696;2022-09-03T13:31:37;7.13;;;4.03;;
16504;SDS011;8365;51.030;4.696;2022-09-03T13:34:17;4.28;;;3.97;;
16504;SDS011;8365;51.030;4.696;2022-09-03T13:40:09;4.25;;;3.85;;
16504;SDS011;8365;51.030;4.696;2022-09-03T13:42:55;4.78;;;3.60;;
16504;SDS011;8365;51.030;4.696;2022-09-03T13:45:38;4.35;;;3.95;;
16504;SDS011;8365;51.030;4.696;2022-09-03T13:48:17;3.90;;;3.70;;
16504;SDS011;8365;51.030;4.696;2022-09-03T13:51:15;4.30;;;4.00;;
16504;SDS011;8365;51.030;4.696;2022-09-03T13:54:34;4.00;;;3.70;;
16504;SDS011;8365;51.030;4.696;2022-09-03T13:57:08;4.03;;;3.72;;
16504;SDS011;8365;51.030;4.696;2022-09-03T13:59:52;4.03;;;3.67;;
16504;SDS011;8365;51.030;4.696;2022-09-03T14:20:16;2.63;;;2.47;;
16504;SDS011;8365;51.030;4.696;2022-09-03T14:26:04;2.95;;;2.60;;
16504;SDS011;8365;51.030;4.696;2022-09-03T14:28:37;3.13;;;2.92;;
16504;SDS011;8365;51.030;4.696;2022-09-03T14:34:30;3.33;;;3.03;;
16504;SDS011;8365;51.030;4.696;2022-09-03T14:40:28;3.83;;;2.60;;
16504;SDS011;8365;51.030;4.696;2022-09-03T15:03:02;3.55;;;3.03;;
16504;SDS011;8365;51.030;4.696;2022-09-03T15:11:15;3.17;;;2.85;;
16504;SDS011;8365;51.030;4.696;2022-09-03T15:28:43;3.40;;;3.10;;
16504;SDS011;8365;51.030;4.696;2022-09-03T15:37:22;3.42;;;3.00;;
16504;SDS011;8365;51.030;4.696;2022-09-03T15:40:04;3.40;;;3.10;;
16504;SDS011;8365;51.030;4.696;2022-09-03T15:43:20;3.63;;;3.00;;
16504;SDS011;8365;51.030;4.696;2022-09-03T15:46:01;3.28;;;3.08;;
16504;SDS011;8365;51.030;4.696;2022-09-03T15:57:32;4.28;;;3.45;;
16504;SDS011;8365;51.030;4.696;2022-09-03T16:01:20;3.72;;;3.38;;
16504;SDS011;8365;51.030;4.696;2022-09-03T16:21:28;3.90;;;3.60;;
16504;SDS011;8365;51.030;4.696;2022-09-03T16:24:22;3.65;;;3.42;;
16504;SDS011;8365;51.030;4.696;2022-09-03T16:29:55;3.70;;;3.20;;
16504;SDS011;8365;51.030;4.696;2022-09-03T16:38:26;4.88;;;3.72;;
16504;SDS011;8365;51.030;4.696;2022-09-03T16:44:17;4.30;;;3.70;;
16504;SDS011;8365;51.030;4.696;2022-09-03T16:49:49;4.38;;;4.00;;
16504;SDS011;8365;51.030;4.696;2022-09-03T16:52:47;3.90;;;3.60;;
16504;SDS011;8365;51.030;4.696;2022-09-03T16:55:47;6.05;;;3.85;;
16504;SDS011;8365;51.030;4.696;2022-09-03T17:07:30;5.25;;;3.95;;
16504;SDS011;8365;51.030;4.696;2022-09-03T17:19:11;2.85;;;2.58;;
16504;SDS011;8365;51.030;4.696;2022-09-03T17:27:27;3.60;;;2.60;;
16504;SDS011;8365;51.030;4.696;2022-09-03T17:30:07;3.55;;;3.08;;
16504;SDS011;8365;51.030;4.696;2022-09-03T17:36:11;4.05;;;2.63;;
16504;SDS011;8365;51.030;4.696;2022-09-03T17:44:15;3.08;;;2.88;;
16504;SDS011;8365;51.030;4.696;2022-09-03T17:49:57;3.03;;;2.60;;
16504;SDS011;8365;51.030;4.696;2022-09-03T17:52:36;2.83;;;2.63;;
16504;SDS011;8365;51.030;4.696;2022-09-03T18:03:58;2.70;;;2.50;;
16504;SDS011;8365;51.030;4.696;2022-09-03T18:12:07;2.80;;;2.40;;
16504;SDS011;8365;51.030;4.696;2022-09-03T18:14:55;3.17;;;2.90;;
16504;SDS011;8365;51.030;4.696;2022-09-03T18:17:37;3.35;;;3.05;;
16504;SDS011;8365;51.030;4.696;2022-09-03T18:20:22;4.15;;;2.95;;
16504;SDS011;8365;51.030;4.696;2022-09-03T18:23:17;4.88;;;3.28;;
16504;SDS011;8365;51.030;4.696;2022-09-03T18:26:13;3.60;;;3.05;;
16504;SDS011;8365;51.030;4.696;2022-09-03T18:29:21;3.35;;;2.90;;
16504;SDS011;8365;51.030;4.696;2022-09-03T18:32:13;4.35;;;3.58;;
16504;SDS011;8365;51.030;4.696;2022-09-03T18:35:06;3.75;;;3.47;;
16504;SDS011;8365;51.030;4.696;2022-09-03T18:37:56;4.78;;;3.38;;
16504;SDS011;8365;51.030;4.696;2022-09-03T18:40:49;3.60;;;3.30;;
16504;SDS011;8365;51.030;4.696;2022-09-03T18:43:52;3.92;;;3.47;;
16504;SDS011;8365;51.030;4.696;2022-09-03T18:56:46;3.45;;;3.15;;
16504;SDS011;8365;51.030;4.696;2022-09-03T19:03:20;6.28;;;3.47;;
16504;SDS011;8365;51.030;4.696;2022-09-03T19:13:06;3.60;;;3.30;;
16504;SDS011;8365;51.030;4.696;2022-09-03T19:16:05;4.15;;;3.75;;
16504;SDS011;8365;51.030;4.696;2022-09-03T19:19:03;3.67;;;3.38;;
16504;SDS011;8365;51.030;4.696;2022-09-03T19:22:08;3.72;;;3.00;;
16504;SDS011;8365;51.030;4.696;2022-09-03T19:25:02;3.53;;;3.20;;
16504;SDS011;8365;51.030;4.696;2022-09-03T19:37:12;3.20;;;2.90;;
16504;SDS011;8365;51.030;4.696;2022-09-03T19:46:52;4.13;;;3.65;;
16504;SDS011;8365;51.030;4.696;2022-09-03T19:50:03;3.90;;;3.60;;
16504;SDS011;8365;51.030;4.696;2022-09-03T19:53:11;3.65;;;3.35;;
16504;SDS011;8365;51.030;4.696;2022-09-03T19:56:18;5.22;;;3.30;;
16504;SDS011;8365;51.030;4.696;2022-09-03T19:59:18;3.70;;;3.40;;
16504;SDS011;8365;51.030;4.696;2022-09-03T20:02:10;3.70;;;3.40;;
16504;SDS011;8365;51.030;4.696;2022-09-03T20:05:02;4.30;;;3.88;;
16504;SDS011;8365;51.030;4.696;2022-09-03T20:07:55;8.27;;;3.83;;
16504;SDS011;8365;51.030;4.696;2022-09-03T20:10:46;4.65;;;3.88;;
16504;SDS011;8365;51.030;4.696;2022-09-03T20:13:19;4.68;;;3.50;;
16504;SDS011;8365;51.030;4.696;2022-09-03T20:21:10;4.32;;;3.92;;
16504;SDS011;8365;51.030;4.696;2022-09-03T20:24:52;4.38;;;4.07;;
16504;SDS011;8365;51.030;4.696;2022-09-03T20:43:32;4.25;;;3.92;;
16504;SDS011;8365;51.030;4.696;2022-09-03T20:52:02;4.53;;;4.22;;
16504;SDS011;8365;51.030;4.696;2022-09-03T20:54:37;6.10;;;4.85;;
16504;SDS011;8365;51.030;4.696;2022-09-03T21:00:24;6.22;;;4.45;;
16504;SDS011;8365;51.030;4.696;2022-09-03T21:08:54;5.00;;;4.65;;
16504;SDS011;8365;51.030;4.696;2022-09-03T21:11:47;5.00;;;4.47;;
16504;SDS011;8365;51.030;4.696;2022-09-03T21:19:46;6.30;;;5.30;;
16504;SDS011;8365;51.030;4.696;2022-09-03T21:27:58;5.78;;;4.50;;
16504;SDS011;8365;51.030;4.696;2022-09-03T21:30:34;5.28;;;4.88;;
16504;SDS011;8365;51.030;4.696;2022-09-03T21:33:11;5.40;;;5.00;;
16504;SDS011;8365;51.030;4.696;2022-09-03T21:35:53;6.30;;;5.25;;
16504;SDS011;8365;51.030;4.696;2022-09-03T21:38:46;7.25;;;5.20;;
16504;SDS011;8365;51.030;4.696;2022-09-03T21:41:38;6.10;;;5.57;;
16504;SDS011;8365;51.030;4.696;2022-09-03T21:44:18;6.43;;;5.85;;
16504;SDS011;8365;51.030;4.696;2022-09-03T21:47:09;5.97;;;5.47;;
16504;SDS011;8365;51.030;4.696;2022-09-03T21:52:39;5.75;;;5.18;;
16504;SDS011;8365;51.030;4.696;2022-09-03T21:58:16;5.22;;;4.68;;
16504;SDS011;8365;51.030;4.696;2022-09-03T22:00:56;5.07;;;4.65;;
16504;SDS011;8365;51.030;4.696;2022-09-03T22:03:35;5.80;;;5.30;;
16504;SDS011;8365;51.030;4.696;2022-09-03T22:06:09;5.57;;;4.88;;
16504;SDS011;8365;51.030;4.696;2022-09-03T22:09:01;4.80;;;4.50;;
16504;SDS011;8365;51.030;4.696;2022-09-03T22:11:54;4.97;;;4.57;;
16504;SDS011;8365;51.030;4.696;2022-09-03T22:14:35;5.15;;;4.57;;
16504;SDS011;8365;51.030;4.696;2022-09-03T22:17:34;5.22;;;4.72;;
16504;SDS011;8365;51.030;4.696;2022-09-03T22:20:26;6.55;;;4.95;;